Vardaman, MS (38878)

4:41 AM CDT on October 24, 2014 (GMT -0500)
RAWS HIGHWAY 41 MS US | Change Station
CLOSE
Current Station
Personal Weather Station
Location: Algoma, MS
Elevation: 319 ft
Nearby Weather Stations

Elev 319 ft 34.09 °N, 88.86 °W | Updated 49 minutes ago

Partly Cloudy
Partly Cloudy
50 °F
Feels Like 50 °F
N
0
Wind Variable Wind from North
Gusts 5.0 mph

Today
High -- | Low -- °F
--% Chance of Precip.
Yesterday
High -- | Low -- °F
Precip. -- in
7:09 AM 6:12 PM
New Moon, 0% visible
Pressure 30.11 in
Visibility 10.0 miles
Clouds Clear
Dew Point 48 °F
Humidity 93%
Rainfall 0.00 in
Snow Depth Not available.
UV 0 out of 12
Pollen 1.30 out of 12
Air Quality Not available.
Flu Activity No Activity
METAR KTUP 240853Z AUTO 35004KT 10SM CLR 11/08 A3011 RMK AO2 SLP195 T01060083 50007 PWINO

More Conditions Fewer Conditions

Pressure 30.11 in
Visibility 10.0 miles
Clouds Clear
Dew Point 48 °F
Humidity 93%
Rainfall 0.00 in
Snow Depth Not available.
UV 0 out of 12
Pollen 1.30 out of 12
Air Quality Not available.
Flu Activity No Activity
METAR KTUP 240853Z AUTO 35004KT 10SM CLR 11/08 A3011 RMK AO2 SLP195 T01060083 50007 PWINO

More Conditions Fewer Conditions

10-Day Weather Forecast

Almanac

Astronomy

Oct. 24, 2014 Rise Set
Actual Time 7:09 AM CDT 6:12 PM CDT
Civil Twilight 6:43 AM CDT 6:37 PM CDT
Nautical Twilight 6:14 AM CDT 7:06 PM CDT
Astronomical Twilight 5:45 AM CDT 7:35 PM CDT
Moon 7:46 AM CDT 6:54 PM CDT
Length of Visible Light 11h 53m
Length of Day
11h 03m
Tomorrow will be 1m 57s shorter.
New Moon, 0% of the Moon is Illuminated
Today
New Moon
Oct 30
First Quarter
Nov 6
Full
Nov 14
Last Quarter
Nov 22
New

Today's Extremes

State Highs State Lows

Community

WunderPhotos

Upload Photos

1,764,513 photos uploaded!

WunderBlogs® & News

Nearby

Snow Depth

Station Depth Elevation
No new snow has been reported.

Earthquake Activity

City Distance Mag. Time & Date
No recent earthquake activity has been reported nearby.
Minimum magnitude displayed is 2.5.

Coastal Water Temperatures

Place Temperature
No Stations Reporting

Nearby Weather Stations